White Creek, New York
Current Conditions -  °F | °C
As of 3:54 PM on Tuesday 27 Jan 2015 (Local Time) from KDDH Reporting Station
Overcast Overcast  
Wind Chill: -10°   Ceiling: 7500
Heat Index:   Visibility: 8mi
Dew Point: -1°   Wind: 16mph
Humidity: 67%   Direction: 340°NNW
Pressure: 29.74"   Gusts: 30mph
Location:  42.9693°N, 73.3467°W
Report Text: KDDH 272054Z AUTO 34014G26KT 8SM OVC075 M13/M18 A2974 RMK AO2 PK WND 01027/2035 SNE18 SLP085 P0000 60000 T11331183 52006
Loading
Personal Weather Stations






























Interactive Weather Map New forecast layout! Learn more

10-Day Weather Forecast

Advertisements
Track Severe Weather on mobile